createdAt,value
2023-05-02T00:01:05.095Z,98185.09
2023-05-02T00:03:32.963Z,98190.50
2023-05-02T00:06:00.828Z,98202.75
2023-05-02T00:08:28.382Z,98213.19
2023-05-02T00:10:55.894Z,98224.91
2023-05-02T00:13:23.529Z,98247.41
2023-05-02T00:15:51.070Z,98239.50
2023-05-02T00:18:20.058Z,98254.84
2023-05-02T00:20:47.582Z,98240.09
2023-05-02T00:23:15.260Z,98254.38
2023-05-02T00:25:45.395Z,98270.06
2023-05-02T00:28:13.891Z,98270.50
2023-05-02T00:30:45.767Z,98287.03
2023-05-02T00:33:14.582Z,98307.22
2023-05-02T00:35:43.538Z,98304.00
2023-05-02T00:38:11.072Z,98301.00
2023-05-02T00:40:45.879Z,98290.22
2023-05-02T00:43:13.440Z,98297.84
2023-05-02T00:45:41.756Z,98295.56
2023-05-02T00:48:09.926Z,98278.63
2023-05-02T00:50:38.304Z,98283.41
2023-05-02T00:53:07.286Z,98277.38
2023-05-02T00:55:34.949Z,98275.59
2023-05-02T00:58:02.698Z,98268.63
2023-05-02T01:00:32.208Z,98279.81
2023-05-02T01:03:02.779Z,98287.34
2023-05-02T01:05:32.110Z,98289.63
2023-05-02T01:08:02.208Z,98260.66
2023-05-02T01:10:33.644Z,98274.81
2023-05-02T01:13:01.550Z,98275.03
2023-05-02T01:15:29.084Z,98289.72
2023-05-02T01:17:56.793Z,98287.63
2023-05-02T01:20:25.549Z,98289.34
2023-05-02T01:22:53.568Z,98277.34
2023-05-02T01:25:23.657Z,98286.78
2023-05-02T01:27:56.807Z,98295.50
2023-05-02T01:30:25.756Z,98279.31
2023-05-02T01:32:53.388Z,98293.03
2023-05-02T01:35:21.270Z,98279.16
2023-05-02T01:37:49.188Z,98269.50
2023-05-02T01:40:18.406Z,98271.88
2023-05-02T01:42:46.692Z,98298.97
2023-05-02T01:45:14.261Z,98309.25
2023-05-02T01:47:43.698Z,98326.06
2023-05-02T01:50:12.988Z,98333.03
2023-05-02T01:52:40.690Z,98336.41
2023-05-02T01:55:08.943Z,98348.59
2023-05-02T01:57:36.485Z,98350.38
2023-05-02T02:00:04.899Z,98333.16
2023-05-02T02:02:40.412Z,98337.44
2023-05-02T02:05:10.449Z,98342.25
2023-05-02T02:07:38.036Z,98346.59
2023-05-02T02:10:05.880Z,98338.00
2023-05-02T02:12:36.833Z,98341.63
2023-05-02T02:15:05.187Z,98325.53
2023-05-02T02:17:33.458Z,98326.88
2023-05-02T02:20:02.218Z,98344.13
2023-05-02T02:22:31.455Z,98339.56
2023-05-02T02:24:59.016Z,98349.16
2023-05-02T02:27:27.032Z,98365.13
2023-05-02T02:29:55.378Z,98356.78
2023-05-02T02:32:22.972Z,98361.06
2023-05-02T02:34:50.581Z,98365.44
2023-05-02T02:37:19.159Z,98370.13
2023-05-02T02:39:52.328Z,98387.22
2023-05-02T02:42:20.320Z,98383.38
2023-05-02T02:44:50.456Z,98395.34
2023-05-02T02:47:21.104Z,98403.38
2023-05-02T02:49:49.211Z,98398.94
2023-05-02T02:52:18.784Z,98389.72
2023-05-02T02:54:46.705Z,98384.41
2023-05-02T02:57:18.091Z,98388.50
2023-05-02T02:59:48.243Z,98369.00
2023-05-02T03:02:16.180Z,98382.91
2023-05-02T03:04:43.898Z,98396.94
2023-05-02T03:07:11.666Z,98403.00
2023-05-02T03:09:42.673Z,98411.47
2023-05-02T03:12:12.580Z,98403.75
2023-05-02T03:14:42.354Z,98405.31
2023-05-02T03:17:09.900Z,98397.72
2023-05-02T03:19:38.097Z,98388.78
2023-05-02T03:22:06.661Z,98378.75
2023-05-02T03:24:36.293Z,98390.47
2023-05-02T03:27:04.832Z,98398.50
2023-05-02T03:29:39.053Z,98402.63
2023-05-02T03:32:08.053Z,98383.56
2023-05-02T03:34:37.938Z,98382.47
2023-05-02T03:37:05.732Z,98365.53
2023-05-02T03:39:33.376Z,98378.91
2023-05-02T03:42:02.901Z,98380.97
2023-05-02T03:44:30.460Z,98377.69
2023-05-02T03:46:58.124Z,98395.00
2023-05-02T03:49:27.910Z,98387.47
2023-05-02T03:51:55.911Z,98361.81
2023-05-02T03:54:29.097Z,98395.63
2023-05-02T03:56:58.194Z,98391.63
2023-05-02T03:59:30.396Z,98414.53
2023-05-02T04:01:59.088Z,98429.56
2023-05-02T04:04:38.348Z,98433.81
2023-05-02T04:07:07.870Z,98441.28
2023-05-02T04:09:35.383Z,98431.34
2023-05-02T04:12:08.238Z,98432.72
2023-05-02T04:14:39.551Z,98449.56
2023-05-02T04:17:07.812Z,98437.69
2023-05-02T04:19:41.414Z,98452.88
2023-05-02T04:22:10.888Z,98444.03
2023-05-02T04:24:42.646Z,98442.66
2023-05-02T04:27:12.435Z,98440.22
2023-05-02T04:29:41.260Z,98439.25
2023-05-02T04:32:10.351Z,98439.91
2023-05-02T04:34:38.130Z,98466.97
2023-05-02T04:37:07.463Z,98471.50
2023-05-02T04:39:35.246Z,98479.13
2023-05-02T04:42:07.223Z,98471.41
2023-05-02T04:44:41.364Z,98468.09
2023-05-02T04:47:09.378Z,98475.00
2023-05-02T04:49:36.932Z,98483.28
2023-05-02T04:52:04.510Z,98493.22
2023-05-02T04:54:35.155Z,98469.19
2023-05-02T04:57:03.785Z,98505.91
2023-05-02T04:59:34.012Z,98519.03
2023-05-02T05:02:03.011Z,98528.72
2023-05-02T05:04:30.665Z,98548.03
2023-05-02T05:06:58.660Z,98560.34
2023-05-02T05:09:28.654Z,98568.31
2023-05-02T05:11:57.496Z,98571.78
2023-05-02T05:14:25.352Z,98572.06
2023-05-02T05:16:55.382Z,98582.09
2023-05-02T05:19:23.764Z,98592.31
2023-05-02T05:21:51.301Z,98605.69
2023-05-02T05:24:20.480Z,98625.28
2023-05-02T05:26:49.225Z,98631.78
2023-05-02T05:29:19.092Z,98634.81
2023-05-02T05:31:46.667Z,98637.44
2023-05-02T05:34:17.982Z,98640.41
2023-05-02T05:36:47.097Z,98645.03
2023-05-02T05:39:15.415Z,98666.63
2023-05-02T05:41:45.022Z,98677.63
2023-05-02T05:44:14.978Z,98674.44
2023-05-02T05:46:43.860Z,98681.91
2023-05-02T05:49:13.107Z,98653.53
2023-05-02T05:51:42.976Z,98635.97
2023-05-02T05:54:11.226Z,98642.97
2023-05-02T05:56:39.514Z,98642.56
2023-05-02T05:59:12.065Z,98645.41
2023-05-02T06:01:39.585Z,98644.84
2023-05-02T06:04:09.282Z,98646.31
2023-05-02T06:06:40.997Z,98672.56
2023-05-02T06:09:08.929Z,98675.50
2023-05-02T06:11:37.875Z,98687.84
2023-05-02T06:14:05.505Z,98683.16
2023-05-02T06:16:33.096Z,98682.94
2023-05-02T06:19:00.796Z,98672.19
2023-05-02T06:21:29.671Z,98681.44
2023-05-02T06:23:57.179Z,98680.09
2023-05-02T06:26:24.737Z,98672.97
2023-05-02T06:28:52.276Z,98682.50
2023-05-02T06:31:19.795Z,98677.91
2023-05-02T06:33:47.340Z,98687.41
2023-05-02T06:36:14.842Z,98692.25
2023-05-02T06:38:43.732Z,98690.94
2023-05-02T06:41:14.897Z,98684.63
2023-05-02T06:43:43.521Z,98680.28
2023-05-02T06:46:11.097Z,98661.66
2023-05-02T06:48:38.622Z,98665.63
2023-05-02T06:51:06.186Z,98676.56
2023-05-02T06:53:34.254Z,98662.31
2023-05-02T06:56:03.272Z,98666.19
2023-05-02T06:58:31.071Z,98665.28
2023-05-02T07:00:58.635Z,98676.41
2023-05-02T07:03:26.469Z,98685.78
2023-05-02T07:05:53.959Z,98691.22
2023-05-02T07:08:22.529Z,98686.34
2023-05-02T07:10:50.061Z,98701.81
2023-05-02T07:13:18.908Z,98698.72
2023-05-02T07:15:46.439Z,98695.50
2023-05-02T07:18:14.079Z,98698.28
2023-05-02T07:20:42.480Z,98704.47
2023-05-02T07:23:10.119Z,98709.41
2023-05-02T07:25:37.790Z,98708.78
2023-05-02T07:28:05.396Z,98709.81
2023-05-02T07:30:34.232Z,98726.00
2023-05-02T07:33:01.867Z,98721.19
2023-05-02T07:35:29.458Z,98722.72
2023-05-02T07:37:57.054Z,98750.66
2023-05-02T07:40:24.709Z,98754.09
2023-05-02T07:42:52.272Z,98757.81
2023-05-02T07:45:19.938Z,98752.59
2023-05-02T07:47:48.918Z,98753.59
2023-05-02T07:50:16.674Z,98765.53
2023-05-02T07:52:44.376Z,98772.25
2023-05-02T07:55:12.063Z,98782.78
2023-05-02T07:57:40.702Z,98777.56
2023-05-02T08:00:10.253Z,98791.69
2023-05-02T08:02:40.877Z,98795.25
2023-05-02T08:05:10.391Z,98812.00
2023-05-02T08:07:38.236Z,98808.84
2023-05-02T08:10:06.285Z,98800.53
2023-05-02T08:12:33.851Z,98800.38
2023-05-02T08:15:03.422Z,98803.34
2023-05-02T08:17:31.898Z,98802.34
2023-05-02T08:20:02.001Z,98793.59
2023-05-02T08:22:31.850Z,98793.75
2023-05-02T08:24:59.427Z,98785.41
2023-05-02T08:27:26.960Z,98767.28
2023-05-02T08:29:54.507Z,98744.16
2023-05-02T08:32:22.369Z,98752.44
2023-05-02T08:34:49.911Z,98736.00
2023-05-02T08:37:18.453Z,98707.44
2023-05-02T08:39:47.323Z,98700.81
2023-05-02T08:42:14.855Z,98701.16
2023-05-02T08:44:42.436Z,98674.56
2023-05-02T08:47:11.101Z,98680.34
2023-05-02T08:49:38.844Z,98658.91
2023-05-02T08:52:06.768Z,98642.31
2023-05-02T08:54:34.332Z,98611.44
2023-05-02T08:57:03.527Z,98594.09
2023-05-02T08:59:31.144Z,98598.91
2023-05-02T09:02:00.396Z,98586.19
2023-05-02T09:04:30.205Z,98568.47
2023-05-02T09:06:57.765Z,98552.28
2023-05-02T09:09:25.485Z,98543.56
2023-05-02T09:11:53.069Z,98533.91
2023-05-02T09:14:22.091Z,98559.34
2023-05-02T09:16:49.603Z,98561.44
2023-05-02T09:19:24.970Z,98556.28
2023-05-02T09:21:52.493Z,98573.88
2023-05-02T09:24:20.344Z,98558.25
2023-05-02T09:27:03.331Z,98551.03
2023-05-02T09:29:38.434Z,98533.78
2023-05-02T09:32:08.614Z,98536.63
2023-05-02T09:34:41.580Z,98546.13
2023-05-02T09:37:11.485Z,98549.22
2023-05-02T09:39:39.033Z,98541.88
2023-05-02T09:42:06.786Z,98537.47
2023-05-02T09:44:41.697Z,98524.06
2023-05-02T09:47:09.473Z,98537.59
2023-05-02T09:49:42.499Z,98524.56
2023-05-02T09:52:13.187Z,98526.47
2023-05-02T09:54:42.848Z,98527.81
2023-05-02T09:57:16.536Z,98497.91
2023-05-02T09:59:55.839Z,98482.88
2023-05-02T10:02:23.441Z,98492.97
2023-05-02T10:04:51.142Z,98480.41
2023-05-02T10:07:18.746Z,98464.72
2023-05-02T10:09:49.319Z,98458.63
2023-05-02T10:12:27.082Z,98453.31
2023-05-02T10:14:57.066Z,98418.97
2023-05-02T10:17:30.496Z,98401.84
2023-05-02T10:19:58.442Z,98399.72
2023-05-02T10:22:26.017Z,98401.50
2023-05-02T10:24:53.749Z,98395.88
2023-05-02T10:27:41.380Z,98373.47
2023-05-02T10:30:14.552Z,98381.97
2023-05-02T10:32:46.485Z,98371.47
2023-05-02T10:35:13.987Z,98381.66
2023-05-02T10:37:43.586Z,98368.63
2023-05-02T10:40:14.389Z,98373.81
2023-05-02T10:42:45.742Z,98353.25
2023-05-02T10:45:30.655Z,98361.34
2023-05-02T10:48:13.186Z,98359.53
2023-05-02T10:50:44.070Z,98365.78
2023-05-02T10:53:27.342Z,98333.34
2023-05-02T10:56:18.756Z,98307.91
2023-05-02T10:58:46.400Z,98290.31
2023-05-02T11:01:36.523Z,98281.16
2023-05-02T11:04:05.614Z,98294.13
2023-05-02T11:06:34.912Z,98273.41
2023-05-02T11:09:21.583Z,98252.41
2023-05-02T11:11:49.665Z,98240.75
2023-05-02T11:14:32.557Z,98233.00
2023-05-02T11:17:13.646Z,98231.16
2023-05-02T11:20:01.743Z,98202.91
2023-05-02T11:22:33.787Z,98205.75
2023-05-02T11:25:01.499Z,98211.25
2023-05-02T11:27:39.223Z,98209.59
2023-05-02T11:30:08.813Z,98192.53
2023-05-02T11:32:59.337Z,98200.88
2023-05-02T11:35:31.254Z,98205.38
2023-05-02T11:38:00.752Z,98221.31
2023-05-02T11:40:28.576Z,98232.50
2023-05-02T11:42:56.219Z,98216.72
2023-05-02T11:45:24.029Z,98209.34
2023-05-02T11:47:51.619Z,98208.59
2023-05-02T11:50:19.191Z,98204.47
2023-05-02T11:52:47.077Z,98198.06
2023-05-02T11:55:16.383Z,98209.38
2023-05-02T11:57:47.090Z,98215.69
2023-05-02T12:00:15.353Z,98218.75
2023-05-02T12:02:43.338Z,98236.69
2023-05-02T12:05:13.106Z,98261.00
2023-05-02T12:07:41.235Z,98270.44
2023-05-02T12:10:09.509Z,98276.94
2023-05-02T12:12:38.969Z,98296.63
2023-05-02T12:15:06.933Z,98308.88
2023-05-02T12:17:34.585Z,98336.66
2023-05-02T12:20:02.169Z,98346.16
2023-05-02T12:22:29.790Z,98360.53
2023-05-02T12:24:57.414Z,98387.81
2023-05-02T12:27:25.082Z,98385.78
2023-05-02T12:29:54.908Z,98390.00
2023-05-02T12:32:28.217Z,98357.16
2023-05-02T12:34:55.948Z,98345.53
2023-05-02T12:37:23.731Z,98318.66
2023-05-02T12:39:51.361Z,98293.78
2023-05-02T12:42:20.007Z,98288.84
2023-05-02T12:44:47.888Z,98244.81
2023-05-02T12:47:17.374Z,98208.28
2023-05-02T12:49:51.498Z,98191.63
2023-05-02T12:52:19.164Z,98182.84
2023-05-02T12:54:52.186Z,98159.03
2023-05-02T12:57:23.628Z,98136.31
2023-05-02T12:59:53.786Z,98129.88
2023-05-02T13:02:23.057Z,98084.66
2023-05-02T13:04:50.761Z,98062.69
2023-05-02T13:07:18.389Z,98053.25
2023-05-02T13:09:49.828Z,98051.09
2023-05-02T13:12:18.197Z,98055.34
2023-05-02T13:14:45.992Z,98053.59
2023-05-02T13:17:14.232Z,98051.28
2023-05-02T13:19:50.492Z,98053.38
2023-05-02T13:22:21.720Z,98041.44
2023-05-02T13:24:50.493Z,98031.59
2023-05-02T13:27:18.660Z,98035.50
2023-05-02T13:29:47.532Z,98024.13
2023-05-02T13:32:15.145Z,98022.66
2023-05-02T13:34:44.321Z,98019.16
2023-05-02T13:37:12.092Z,98010.09
2023-05-02T13:39:39.695Z,98013.03
2023-05-02T13:42:08.118Z,98011.50
2023-05-02T13:44:36.476Z,98019.28
2023-05-02T13:47:04.189Z,98024.91
2023-05-02T13:49:31.776Z,98017.91
2023-05-02T13:52:04.585Z,98023.03
2023-05-02T13:54:35.747Z,98028.94
2023-05-02T13:57:05.552Z,98033.50
2023-05-02T13:59:33.100Z,98045.19
2023-05-02T14:02:00.955Z,98088.56
2023-05-02T14:04:28.948Z,98131.63
2023-05-02T14:06:56.574Z,98203.59
2023-05-02T14:09:25.641Z,98284.66
2023-05-02T14:11:53.192Z,98354.31
2023-05-02T14:14:20.804Z,98415.03
2023-05-02T14:16:50.221Z,98478.72
2023-05-02T14:19:18.297Z,98517.91
2023-05-02T14:21:45.822Z,98556.69
2023-05-02T14:24:14.917Z,98583.22
2023-05-02T14:26:43.826Z,98626.47
2023-05-02T14:29:11.395Z,98650.66
2023-05-02T14:31:39.093Z,98685.16
2023-05-02T14:34:09.726Z,98701.63
2023-05-02T14:36:37.401Z,98736.06
2023-05-02T14:39:06.230Z,98756.94
2023-05-02T14:41:33.763Z,98777.91
2023-05-02T14:44:02.713Z,98799.63
2023-05-02T14:46:30.261Z,98830.91
2023-05-02T14:48:57.856Z,98857.06
2023-05-02T14:51:25.585Z,98871.38
2023-05-02T14:53:54.375Z,98903.88
2023-05-02T14:56:22.185Z,98920.97
2023-05-02T14:58:49.758Z,98934.72
2023-05-02T15:01:18.886Z,98961.69
2023-05-02T15:04:04.338Z,98981.41
2023-05-02T15:06:34.066Z,98996.66
2023-05-02T15:09:05.121Z,99004.41
2023-05-02T15:11:32.976Z,99018.41
2023-05-02T15:14:00.946Z,99040.03
2023-05-02T15:16:29.940Z,99054.56
2023-05-02T15:18:57.611Z,99066.22
2023-05-02T15:21:25.167Z,99091.16
2023-05-02T15:23:52.977Z,99091.44
2023-05-02T15:26:21.283Z,99093.94
2023-05-02T15:28:48.888Z,99122.63
2023-05-02T15:31:16.533Z,99130.69
2023-05-02T15:33:45.548Z,99153.69
2023-05-02T15:36:13.216Z,99136.09
2023-05-02T15:38:42.835Z,99128.59
2023-05-02T15:41:10.836Z,99147.16
2023-05-02T15:43:38.526Z,99139.69
2023-05-02T15:46:06.150Z,99139.16
2023-05-02T15:48:34.911Z,99154.38
2023-05-02T15:51:05.754Z,99176.84
2023-05-02T15:53:34.642Z,99186.53
2023-05-02T15:56:04.002Z,99181.00
2023-05-02T15:58:31.566Z,99183.50
2023-05-02T16:00:59.173Z,99183.78
2023-05-02T16:03:26.826Z,99181.28
2023-05-02T16:05:54.940Z,99177.97
2023-05-02T16:08:24.004Z,99177.41
2023-05-02T16:10:51.772Z,99182.41
2023-05-02T16:13:19.559Z,99169.38
2023-05-02T16:15:48.237Z,99166.00
2023-05-02T16:18:16.036Z,99171.16
2023-05-02T16:20:45.989Z,99176.38
2023-05-02T16:23:13.739Z,99175.97
2023-05-02T16:25:45.941Z,99184.84
2023-05-02T16:28:13.792Z,99205.16
2023-05-02T16:30:44.854Z,99190.81
2023-05-02T16:33:13.240Z,99191.50
2023-05-02T16:35:41.075Z,99199.25
2023-05-02T16:38:09.110Z,99194.25
2023-05-02T16:40:36.966Z,99199.50
2023-05-02T16:43:25.559Z,99208.44
2023-05-02T16:46:00.896Z,99208.88
2023-05-02T16:48:28.707Z,99216.44
2023-05-02T16:50:57.144Z,99221.81
2023-05-02T16:53:25.199Z,99211.13
2023-05-02T16:55:53.016Z,99211.47
2023-05-02T16:58:20.809Z,99199.91
2023-05-02T17:00:50.426Z,99199.69
2023-05-02T17:03:18.373Z,99193.94
2023-05-02T17:05:46.599Z,99194.75
2023-05-02T17:08:16.941Z,99178.06
2023-05-02T17:10:49.616Z,99181.38
2023-05-02T17:13:17.591Z,99176.47
2023-05-02T17:15:45.651Z,99183.19
2023-05-02T17:18:14.829Z,99181.31
2023-05-02T17:20:42.861Z,99175.94
2023-05-02T17:23:11.110Z,99193.78
2023-05-02T17:25:39.581Z,99167.38
2023-05-02T17:28:07.907Z,99157.50
2023-05-02T17:30:35.814Z,99158.25
2023-05-02T17:33:03.828Z,99153.53
2023-05-02T17:35:33.229Z,99150.91
2023-05-02T17:38:01.045Z,99159.09
2023-05-02T17:40:29.874Z,99146.59
2023-05-02T17:42:58.899Z,99126.00
2023-05-02T17:45:31.136Z,99122.75
2023-05-02T17:48:03.751Z,99098.34
2023-05-02T17:50:37.349Z,99097.53
2023-05-02T17:53:12.651Z,99097.00
2023-05-02T17:55:40.651Z,99084.78
2023-05-02T17:58:08.521Z,99071.22
2023-05-02T18:00:38.580Z,99060.41
2023-05-02T18:03:08.317Z,99061.91
2023-05-02T18:05:40.042Z,99039.06
2023-05-02T18:08:08.366Z,99017.94
2023-05-02T18:10:39.975Z,99022.38
2023-05-02T18:13:09.022Z,99030.69
2023-05-02T18:15:37.003Z,99015.16
2023-05-02T18:18:04.954Z,99022.38
2023-05-02T18:20:32.889Z,98999.91
2023-05-02T18:23:02.609Z,98996.56
2023-05-02T18:25:33.040Z,98984.84
2023-05-02T18:28:00.897Z,98966.91
2023-05-02T18:30:28.646Z,98958.16
2023-05-02T18:32:56.611Z,98956.66
2023-05-02T18:35:25.264Z,98967.47
2023-05-02T18:38:24.764Z,98976.66
2023-05-02T18:40:45.878Z,98966.38
2023-05-02T18:43:13.855Z,98970.03
2023-05-02T18:45:43.345Z,98970.84
2023-05-02T18:48:13.791Z,98961.03
2023-05-02T18:50:41.847Z,98943.28
2023-05-02T18:53:09.920Z,98931.34
2023-05-02T18:55:39.520Z,98937.31
2023-05-02T18:58:09.306Z,98933.13
2023-05-02T19:00:37.461Z,98943.66
2023-05-02T19:03:05.594Z,98950.75
2023-05-02T19:05:34.726Z,98946.72
2023-05-02T19:08:03.556Z,98956.84
2023-05-02T19:10:34.402Z,98954.00
2023-05-02T19:13:02.201Z,98956.34
2023-05-02T19:15:31.409Z,98951.59
2023-05-02T19:17:59.296Z,98963.16
2023-05-02T19:20:28.151Z,98958.06
2023-05-02T19:23:07.075Z,98960.25
2023-05-02T19:25:52.640Z,98954.69
2023-05-02T19:28:20.650Z,98950.22
2023-05-02T19:30:49.838Z,98965.75
2023-05-02T19:33:17.653Z,98977.13
2023-05-02T19:35:47.192Z,98967.34
2023-05-02T19:38:15.190Z,98979.75
2023-05-02T19:40:43.383Z,98989.63
2023-05-02T19:43:11.735Z,98989.03
2023-05-02T19:45:39.879Z,98996.19
2023-05-02T19:48:09.618Z,98996.84
2023-05-02T19:50:39.226Z,98986.34
2023-05-02T19:53:07.384Z,98995.47
2023-05-02T19:55:35.169Z,98992.34
2023-05-02T19:58:04.650Z,98976.63
2023-05-02T20:00:35.523Z,98983.72
2023-05-02T20:03:10.180Z,98965.50
2023-05-02T20:05:43.441Z,98942.56
2023-05-02T20:08:16.330Z,98925.41
2023-05-02T20:10:44.450Z,98908.63
2023-05-02T20:13:12.481Z,98886.31
2023-05-02T20:15:41.548Z,98879.22
2023-05-02T20:18:09.872Z,98900.50
2023-05-02T20:20:39.152Z,98890.19
2023-05-02T20:23:07.069Z,98895.09
2023-05-02T20:25:35.206Z,98886.06
2023-05-02T20:28:04.125Z,98888.75
2023-05-02T20:30:33.217Z,98896.75
2023-05-02T20:33:14.069Z,98912.91
2023-05-02T20:35:45.391Z,98930.63
2023-05-02T20:38:17.788Z,98919.31
2023-05-02T20:40:45.725Z,98917.25
2023-05-02T20:43:14.351Z,98919.09
2023-05-02T20:45:42.550Z,98919.75
2023-05-02T20:48:10.737Z,98922.22
2023-05-02T20:50:38.680Z,98932.22
2023-05-02T20:53:07.839Z,98932.22
2023-05-02T20:55:38.671Z,98924.09
2023-05-02T20:58:06.600Z,98941.22
2023-05-02T21:00:34.627Z,98931.50
2023-05-02T21:03:02.570Z,98910.78
2023-05-02T21:09:17.842Z,98853.03
2023-05-02T21:11:46.236Z,98855.91
2023-05-02T21:14:14.145Z,98830.50
2023-05-02T21:16:42.162Z,98822.72
2023-05-02T21:19:09.956Z,98825.75
2023-05-02T21:21:39.600Z,98827.25
2023-05-02T21:24:08.740Z,98826.56
2023-05-02T21:26:41.450Z,98844.25
2023-05-02T21:29:10.788Z,98854.81
2023-05-02T21:31:39.551Z,98838.44
2023-05-02T21:34:07.596Z,98848.94
2023-05-02T21:36:35.762Z,98851.97
2023-05-02T21:39:03.526Z,98853.13
2023-05-02T21:41:31.361Z,98844.69
2023-05-02T21:44:20.462Z,98863.38
2023-05-02T21:46:48.660Z,98862.81
2023-05-02T21:49:16.610Z,98858.66
2023-05-02T21:51:44.503Z,98858.91
2023-05-02T21:54:12.243Z,98870.44
2023-05-02T21:56:40.319Z,98853.72
2023-05-02T21:59:08.092Z,98844.00
2023-05-02T22:01:37.449Z,98847.00
2023-05-02T22:04:05.607Z,98843.81
2023-05-02T22:06:34.826Z,98850.16
2023-05-02T22:09:02.674Z,98844.66
2023-05-02T22:11:31.571Z,98840.09
2023-05-02T22:13:59.396Z,98843.97
2023-05-02T22:16:27.742Z,98834.09
2023-05-02T22:18:57.996Z,98826.91
2023-05-02T22:21:32.759Z,98836.28
2023-05-02T22:24:00.812Z,98844.22
2023-05-02T22:26:28.627Z,98855.13
2023-05-02T22:28:56.347Z,98825.81
2023-05-02T22:31:24.184Z,98827.03
2023-05-02T22:33:52.200Z,98817.97
2023-05-02T22:36:21.384Z,98823.06
2023-05-02T22:38:50.456Z,98813.47
2023-05-02T22:41:18.263Z,98811.19
2023-05-02T22:43:46.212Z,98834.97
2023-05-02T22:46:13.987Z,98847.28
2023-05-02T22:48:41.781Z,98831.31
2023-05-02T22:51:09.610Z,98823.16
2023-05-02T22:53:38.767Z,98809.13
2023-05-02T22:56:07.008Z,98781.97
2023-05-02T22:58:34.811Z,98770.41
2023-05-02T23:01:02.807Z,98748.41
2023-05-02T23:03:30.736Z,98729.94
2023-05-02T23:05:58.591Z,98704.72
2023-05-02T23:08:26.307Z,98696.31
2023-05-02T23:10:55.976Z,98690.41
2023-05-02T23:13:23.771Z,98684.47
2023-05-02T23:15:53.814Z,98681.25
2023-05-02T23:18:21.809Z,98676.31
2023-05-02T23:20:52.035Z,98688.94
2023-05-02T23:23:19.748Z,98684.88
2023-05-02T23:25:47.572Z,98679.63
2023-05-02T23:28:16.643Z,98670.72
2023-05-02T23:30:44.413Z,98669.44
2023-05-02T23:33:12.196Z,98671.66
2023-05-02T23:35:40.028Z,98664.22
2023-05-02T23:38:08.125Z,98668.81
2023-05-02T23:40:36.044Z,98674.19
2023-05-02T23:43:03.763Z,98675.13
2023-05-02T23:45:32.862Z,98672.19
2023-05-02T23:48:00.599Z,98671.53
2023-05-02T23:50:28.507Z,98674.53
2023-05-02T23:52:56.229Z,98681.25
2023-05-02T23:55:24.022Z,98678.28
2023-05-02T23:57:51.759Z,98662.44
